Date,TemperatureHighF,TemperatureAvgF,TemperatureLowF,DewpointHighF,DewpointAvgF,DewpointLowF,HumidityHigh,HumidityAvg,HumidityLow,PressureMaxIn,PressureMinIn,WindSpeedMaxMPH,WindSpeedAvgMPH,GustSpeedMaxMPH,PrecipitationSumIn
2013-1-1,34,23,11,27,16,6,82,71,60,29.23,29.05,7,3,14,0.00
2013-1-2,27,21,11,18,13,5,82,71,62,29.38,29.18,9,4,17,0.00
2013-1-3,29,22,14,24,16,10,85,78,68,29.38,29.16,8,4,20,0.00
2013-1-4,36,32,28,24,22,18,75,67,51,29.22,29.05,11,7,29,0.00
2013-1-5,37,32,29,26,23,21,78,69,60,29.47,29.22,11,4,20,0.00
2013-1-6,38,34,31,31,28,22,87,76,67,29.26,29.08,7,4,19,0.00
2013-1-7,35,30,26,31,24,20,85,75,64,29.57,29.26,7,4,19,0.00
2013-1-8,43,32,28,24,21,18,74,63,45,29.49,29.36,10,4,21,0.00
2013-1-9,48,38,26,36,27,20,77,64,52,29.53,29.14,13,6,31,0.00
2013-1-10,45,38,31,28,26,25,77,63,49,29.75,29.54,7,2,14,0.00
2013-1-11,45,41,32,39,31,23,83,68,46,29.59,29.08,12,8,26,0.00
2013-1-12,59,51,44,49,45,39,86,79,70,29.21,29.15,7,5,20,0.00
2013-1-13,69,58,48,55,51,45,87,76,61,29.17,28.93,12,4,27,0.00
2013-1-14,58,37,29,51,28,19,81,70,59,29.56,28.93,14,5,25,0.00
2013-1-15,38,30,26,21,19,17,71,62,47,29.57,29.35,4,2,9,0.00
2013-1-16,41,33,29,30,24,20,80,70,53,29.34,28.96,7,3,19,0.00
2013-1-17,35,26,17,28,18,13,85,73,56,29.35,29.04,9,4,20,0.00
2013-1-18,32,21,14,15,11,6,85,64,49,29.59,29.22,12,4,28,0.00
2013-1-19,48,42,32,28,23,14,49,46,38,29.22,28.81,12,7,28,0.00
2013-1-20,48,31,19,33,18,6,84,60,40,29.26,28.66,17,9,39,0.00
2013-1-21,22,18,12,15,8,0,80,63,54,29.25,29.03,7,3,17,0.00
2013-1-22,14,9,4,4,-2,-8,77,61,46,29.37,29.08,10,6,18,0.00
2013-1-23,16,9,2,6,-1,-8,77,65,53,29.39,29.28,5,2,13,0.00
2013-1-24,18,11,4,9,2,-4,78,69,55,29.70,29.26,6,3,13,0.00
2013-1-25,17,10,4,10,3,-4,84,72,58,29.69,29.25,5,2,11,0.00
2013-1-26,26,16,7,12,7,3,83,70,51,29.57,29.27,3,2,9,0.00
2013-1-27,33,22,12,19,13,8,83,69,52,29.72,29.53,5,2,8,0.00
2013-1-28,44,37,22,42,32,14,92,82,54,29.52,29.04,9,5,22,0.80
2013-1-29,56,45,36,52,42,33,92,88,82,29.23,28.96,7,3,18,1.10
2013-1-30,65,59,54,54,50,48,85,72,64,28.94,28.25,14,9,29,0.00
2013-1-31,54,29,19,50,21,13,88,73,55,28.90,28.25,18,8,38,0.60
2013-2-1,24,19,16,15,11,7,80,68,52,29.37,28.90,10,5,20,0.00
2013-2-2,23,17,13,14,9,4,79,69,57,29.37,29.15,10,5,27,0.00
2013-2-3,28,20,12,16,12,8,84,72,49,29.15,28.95,6,2,12,0.00
2013-2-4,23,19,17,14,10,6,80,68,53,29.14,29.05,9,4,18,0.00
2013-2-5,31,23,16,18,15,11,84,71,56,29.13,29.01,6,2,14,0.00
2013-2-6,31,25,14,23,15,7,86,65,43,29.55,29.05,8,3,17,0.00
2013-2-7,35,25,12,20,14,7,80,64,47,29.57,29.23,8,3,17,0.00
2013-2-8,38,31,18,32,25,15,91,77,57,29.26,28.93,12,5,22,0.30
2013-2-9,23,18,12,15,13,8,84,79,70,29.60,29.26,0,0,0,0.00
2013-2-10,38,24,7,25,14,2,82,66,48,29.58,29.16,12,2,23,1.10
2013-2-11,54,40,35,41,29,21,76,64,48,29.16,28.74,12,8,31,0.00
2013-2-12,34,33,31,26,24,21,74,69,60,29.15,28.92,11,7,27,0.00
2013-2-13,44,33,25,25,22,20,81,64,44,29.10,28.89,7,2,11,0.00
2013-2-14,45,34,25,33,26,20,87,73,50,29.10,28.97,7,4,19,0.30
2013-2-15,38,35,25,33,24,14,86,64,50,29.24,28.96,12,6,29,0.00
2013-2-16,35,25,20,19,14,9,82,62,39,29.24,29.09,5,2,10,0.00
2013-2-17,21,16,12,15,9,3,85,72,56,29.37,29.06,9,4,20,0.00
2013-2-18,36,24,10,19,11,4,77,58,41,29.46,29.09,8,3,16,0.00
2013-2-19,44,35,25,35,24,15,83,64,45,29.09,28.73,12,8,27,0.00
2013-2-20,25,21,18,18,12,9,85,69,56,29.26,28.96,12,7,30,0.00
2013-2-21,22,20,16,14,12,8,78,69,62,29.58,29.22,8,4,17,0.00
2013-2-22,35,28,21,25,20,14,78,71,58,29.56,29.19,12,5,23,0.00
2013-2-23,40,34,31,32,27,22,82,75,68,29.21,29.05,10,5,19,0.00
2013-2-24,34,31,30,24,22,20,75,69,62,29.25,29.04,9,4,18,0.00
2013-2-25,38,33,27,25,24,22,81,69,54,29.40,29.25,6,2,11,0.00
2013-2-26,45,34,22,31,25,18,90,69,47,29.41,28.97,11,4,22,0.60
2013-2-27,38,35,33,34,32,30,91,88,80,28.97,28.76,6,1,12,1.50
2013-2-28,39,35,33,33,31,30,89,83,74,28.91,28.73,5,2,12,0.30
2013-3-1,34,29,26,31,25,20,91,82,75,29.11,28.90,5,3,13,0.00
2013-3-2,27,24,22,21,18,16,81,77,67,29.13,29.05,6,3,12,0.00
2013-3-3,26,23,22,20,18,16,87,78,67,29.09,29.03,6,3,12,0.00
2013-3-4,29,26,21,22,18,15,79,73,62,29.22,29.08,9,5,19,0.00
2013-3-5,37,28,23,24,20,17,83,71,56,29.28,29.14,10,3,17,0.00
2013-3-6,42,32,21,30,25,18,87,77,59,29.31,29.12,9,3,17,0.00
2013-3-7,40,34,30,33,29,24,89,79,68,29.45,29.31,5,2,12,0.00
2013-3-8,44,35,29,27,24,22,87,66,45,29.57,29.43,7,3,15,0.00
2013-3-9,54,37,24,33,26,20,85,65,37,29.58,29.41,5,2,10,0.00
2013-3-10,66,54,34,32,28,22,69,36,26,29.39,29.16,11,7,19,0.00
2013-3-11,58,54,51,44,31,27,70,42,36,29.19,28.87,14,9,30,0.00
2013-3-12,53,40,34,46,33,26,86,75,66,29.11,28.88,9,5,19,0.00
2013-3-13,40,33,22,28,23,14,84,66,51,29.14,29.01,12,6,26,0.00
2013-3-14,36,27,18,16,12,6,79,54,30,29.24,29.13,12,6,24,0.00
2013-3-15,37,31,24,29,22,13,81,70,56,29.23,28.93,9,5,25,0.00
2013-3-16,30,26,20,21,17,14,80,68,57,29.17,29.00,5,3,12,0.00
2013-3-17,34,26,20,22,16,8,85,67,47,29.51,29.16,5,2,14,0.00
2013-3-18,36,27,16,28,16,8,85,65,36,29.51,28.90,11,5,22,0.30
2013-3-19,38,32,25,31,25,18,87,76,58,29.03,28.85,11,5,24,0.00
2013-3-20,36,28,23,24,18,13,84,69,47,29.03,28.97,11,5,20,0.00
2013-3-21,34,25,18,23,17,12,87,71,47,29.02,28.90,9,4,18,0.00
2013-3-22,32,28,24,24,22,19,80,76,69,29.12,28.93,9,6,21,0.00
2013-3-23,42,34,29,25,23,20,76,65,47,29.19,29.09,9,5,18,0.00
2013-3-24,41,33,25,27,22,19,82,63,46,29.20,28.91,6,3,11,0.00
2013-3-25,42,34,29,28,24,22,75,66,51,28.92,28.78,6,3,13,0.00
2013-3-26,52,39,29,32,27,23,80,62,39,29.13,28.92,6,3,14,0.00
2013-3-27,46,37,32,31,28,24,88,71,52,29.24,29.11,9,4,21,0.00
2013-3-28,48,38,33,33,30,25,88,74,42,29.39,29.23,7,3,14,0.00
2013-3-29,53,42,36,34,30,26,78,62,41,29.39,29.30,8,3,15,0.00
2013-3-30,55,42,31,29,25,22,71,52,31,29.38,29.23,5,3,18,0.00
2013-3-31,57,43,32,40,30,23,84,62,35,29.23,28.82,11,5,27,0.00
2013-4-1,44,36,26,38,27,16,87,71,44,29.14,28.77,14,6,28,0.00
2013-4-2,35,28,22,25,17,12,81,64,47,29.30,29.13,11,6,24,0.00
2013-4-3,37,30,26,23,17,14,76,58,39,29.56,29.29,10,5,22,0.00
2013-4-4,60,40,24,22,18,15,71,45,21,29.53,29.11,7,3,18,0.00
2013-4-5,50,40,29,27,20,14,57,45,32,29.34,29.06,8,4,18,0.00
2013-4-6,54,39,23,21,17,14,72,43,22,29.49,29.21,8,3,16,0.00
2013-4-7,74,56,44,46,32,17,66,40,27,29.23,28.90,14,8,37,0.00
2013-4-8,68,51,40,48,37,32,79,59,35,29.31,28.97,8,3,14,0.00
2013-4-9,71,55,45,51,43,40,90,66,38,29.29,28.96,12,4,30,0.80
2013-4-10,49,44,39,46,42,37,93,91,88,29.24,29.04,7,2,16,1.60
2013-4-11,39,35,32,37,32,27,92,87,68,29.34,29.12,7,0,13,1.50
2013-4-12,55,42,34,49,38,32,93,84,72,29.13,28.72,14,6,26,0.60
2013-4-13,46,42,38,35,33,30,78,70,55,29.14,28.97,7,4,21,0.00
2013-4-14,52,42,35,31,28,25,76,60,39,29.37,29.13,7,4,18,0.00
2013-4-15,77,57,35,48,39,28,75,54,33,29.35,29.18,12,4,28,0.00
2013-4-16,67,58,47,57,49,36,87,71,60,29.42,29.16,11,6,34,0.00
2013-4-17,60,49,36,37,32,30,77,54,38,29.52,29.41,7,3,14,0.00
2013-4-18,78,63,43,56,48,31,72,58,47,29.42,28.93,17,10,37,0.00
2013-4-19,73,59,42,59,48,29,81,67,55,28.98,28.56,18,9,32,0.30
2013-4-20,43,38,32,30,26,20,79,61,47,29.59,28.95,14,7,33,0.00
2013-4-21,48,37,26,26,22,19,77,56,38,29.84,29.59,6,2,12,0.00
2013-4-22,64,47,29,29,24,19,73,44,24,29.77,29.52,10,4,20,0.00
2013-4-23,73,54,39,37,32,25,64,44,24,29.53,29.15,10,6,19,0.00
2013-4-24,70,54,39,54,41,31,80,61,46,29.21,28.81,13,7,31,0.00
2013-4-25,62,47,37,37,31,26,77,56,28,29.49,29.22,10,4,20,0.00
2013-4-26,60,48,36,36,30,25,82,52,28,29.64,29.50,6,3,12,0.00
2013-4-27,76,57,39,39,34,29,69,44,24,29.62,29.41,7,3,14,0.00
2013-4-28,74,59,44,46,39,34,74,50,26,29.41,29.22,11,5,23,0.30
2013-4-29,67,58,50,51,47,42,78,66,57,29.25,29.16,11,7,19,0.00
2013-4-30,76,64,57,53,51,49,78,63,44,29.41,29.24,10,6,20,0.00
2013-5-1,83,68,58,49,43,30,69,43,21,29.52,29.41,9,5,16,0.00
2013-5-2,82,69,56,40,36,30,42,30,17,29.59,29.44,7,4,15,0.00
2013-5-3,82,68,51,46,42,38,66,41,26,29.49,29.38,7,3,15,0.00
2013-5-4,80,66,53,42,39,34,51,37,24,29.46,29.31,9,5,17,0.00
2013-5-5,83,67,53,46,39,29,59,38,18,29.39,29.26,7,3,14,0.00
2013-5-6,85,67,52,46,36,29,51,34,17,29.34,29.18,7,4,14,0.00
2013-5-7,85,69,53,54,49,45,77,50,26,29.31,29.18,7,3,16,0.00
2013-5-8,72,62,56,60,53,48,89,73,54,29.25,29.12,7,1,18,0.00
2013-5-9,75,64,57,61,56,54,90,78,51,29.17,29.08,6,3,14,0.00
2013-5-10,76,63,55,62,55,50,89,75,53,29.16,28.93,10,4,21,0.38
2013-5-11,64,57,50,56,49,42,90,75,55,28.98,28.87,8,4,19,0.00
2013-5-12,53,46,36,43,33,27,85,61,39,29.14,28.90,13,7,29,0.14
2013-5-13,50,42,34,31,29,26,73,60,41,29.33,29.13,11,5,22,0.00
2013-5-14,66,50,35,35,30,26,80,51,26,29.34,29.14,6,3,17,0.00
2013-5-15,84,64,51,59,46,35,64,51,36,29.15,28.73,15,6,32,0.00
2013-5-16,79,67,52,49,44,36,64,44,27,29.21,28.94,11,5,24,0.00
2013-5-17,71,57,43,44,40,37,80,54,31,29.42,29.21,5,2,12,0.00
2013-5-18,75,61,47,51,45,38,79,57,37,29.45,29.31,7,3,13,0.00
2013-5-19,85,69,60,62,56,51,76,64,45,29.34,29.18,10,6,19,0.00
2013-5-20,94,77,64,65,61,57,79,60,36,29.24,29.05,8,4,17,0.00
2013-5-21,95,78,65,69,64,59,80,62,36,29.13,28.94,7,3,19,0.00
2013-5-22,93,78,68,68,62,58,85,60,35,29.02,28.86,10,5,27,0.00
2013-5-23,77,68,47,63,58,44,90,72,58,29.08,28.92,9,4,20,0.14
2013-5-24,52,44,39,43,37,35,90,78,56,29.39,29.08,7,4,17,0.00
2013-5-25,61,50,40,36,34,31,78,55,37,29.40,29.34,7,4,17,0.00
2013-5-26,66,54,42,37,34,31,73,48,28,29.41,29.33,7,3,17,0.00
2013-5-27,77,60,43,41,36,34,69,44,22,29.46,29.32,5,3,11,0.00
2013-5-28,66,58,51,61,50,37,92,74,47,29.36,29.13,11,4,20,1.37
2013-5-29,87,74,64,68,63,60,90,69,49,29.23,29.11,9,5,22,0.47
2013-5-30,93,80,68,67,63,60,80,57,35,29.32,29.23,7,4,14,0.00
2013-5-31,97,81,68,67,63,60,75,55,32,29.29,29.13,6,4,14,0.00
2013-6-1,92,77,67,68,64,60,88,65,41,29.18,28.97,10,5,29,0.00
2013-6-2,81,71,60,67,61,52,92,72,46,29.10,28.92,12,5,22,0.14
2013-6-3,69,59,51,52,45,42,80,61,41,29.23,29.10,6,3,13,0.00
2013-6-4,73,60,48,43,40,34,78,50,25,29.37,29.23,5,2,14,0.00
2013-6-5,73,60,48,50,43,38,75,55,37,29.41,29.27,7,3,16,0.00
2013-6-6,58,56,52,56,50,40,92,83,56,29.28,29.04,6,2,13,1.84
2013-6-7,61,59,57,58,56,55,94,92,89,29.07,29.01,3,1,7,0.66
2013-6-8,66,61,56,58,55,51,94,82,71,29.30,29.02,6,2,12,0.00
2013-6-9,82,68,56,57,54,50,81,62,39,29.39,29.29,6,3,11,0.00
2013-6-10,70,65,61,65,60,54,91,82,72,29.32,28.93,9,2,17,0.42
2013-6-11,71,66,62,64,60,55,92,81,66,29.07,28.87,8,4,18,0.24
2013-6-12,82,68,54,59,55,51,89,63,36,29.14,28.98,4,2,9,0.00
2013-6-13,69,62,56,61,57,53,92,85,65,29.00,28.69,7,3,16,0.76
2013-6-14,77,65,56,60,56,53,92,74,50,29.20,29.00,5,2,13,0.00
2013-6-15,79,68,53,56,51,42,85,58,29,29.25,29.17,7,3,15,0.00
2013-6-16,78,68,62,65,58,51,86,71,61,29.17,28.92,10,5,26,0.00
2013-6-17,85,72,62,64,58,53,86,63,38,29.14,29.04,10,4,20,0.00
2013-6-18,72,63,55,58,52,46,90,69,41,29.23,29.10,6,3,14,0.00
2013-6-19,74,61,48,49,45,41,89,59,37,29.41,29.23,4,2,10,0.00
2013-6-20,84,66,50,54,47,43,78,54,35,29.45,29.39,7,3,14,0.00
2013-6-21,89,72,53,59,54,45,78,55,34,29.47,29.36,6,3,12,0.00
2013-6-22,91,78,63,66,62,56,80,59,43,29.39,29.21,8,4,19,0.00
2013-6-23,94,81,73,72,67,63,73,62,45,29.28,29.21,8,5,20,0.00
2013-6-24,93,81,71,70,65,61,78,59,38,29.26,29.16,9,5,17,0.00
2013-6-25,88,78,71,69,64,61,75,64,49,29.17,29.01,9,5,22,0.00
2013-6-26,89,77,70,68,65,63,80,66,44,29.05,29.00,7,3,15,0.00
2013-6-27,83,72,66,71,66,62,91,79,66,29.03,28.86,10,2,20,0.14
2013-6-28,71,66,62,68,63,60,93,91,85,28.86,28.71,7,1,12,0.90
2013-6-29,82,70,62,67,63,60,94,80,53,28.92,28.73,5,2,10,0.85
2013-6-30,85,71,60,67,62,58,92,75,50,29.14,28.92,7,2,15,0.00
2013-7-1,67,64,60,63,61,58,93,90,84,29.28,29.13,5,2,14,0.84
2013-7-2,90,69,60,74,64,58,94,85,58,29.31,29.22,6,2,15,0.14
2013-7-3,94,77,67,74,69,65,95,77,48,29.36,29.28,6,2,15,0.00
2013-7-4,90,78,71,73,69,67,90,75,54,29.39,29.31,5,2,21,0.14
2013-7-5,91,78,70,74,69,66,89,75,52,29.36,29.26,8,3,19,0.00
2013-7-6,92,80,70,72,68,65,89,68,46,29.36,29.23,4,2,10,0.00
2013-7-7,88,78,71,72,68,63,91,72,52,29.27,29.15,6,3,15,0.75
2013-7-8,90,78,70,71,67,63,82,69,48,29.26,29.20,5,2,12,0.00
2013-7-9,85,76,69,74,68,66,88,78,65,29.26,29.13,8,3,19,0.00
2013-7-10,92,78,72,74,69,60,88,74,53,29.13,28.95,12,4,23,0.00
2013-7-11,82,72,63,64,59,55,80,63,45,29.24,29.05,5,3,12,0.00
2013-7-12,78,68,60,64,59,57,90,74,55,29.39,29.23,5,2,12,0.00
2013-7-13,85,72,61,70,64,57,89,76,58,29.46,29.37,5,2,9,0.00
2013-7-14,98,81,68,74,70,64,90,70,43,29.52,29.43,4,2,12,0.00
2013-7-15,94,82,74,75,71,66,86,70,52,29.51,29.44,4,2,10,0.00
2013-7-16,96,83,71,74,68,65,82,64,41,29.51,29.41,5,2,10,0.00
2013-7-17,98,85,74,76,71,66,77,64,44,29.45,29.30,7,4,13,0.00
2013-7-18,96,85,76,77,73,69,85,68,50,29.33,29.17,6,3,13,0.00
2013-7-19,96,84,68,74,70,64,90,65,46,29.18,28.95,10,6,24,0.38
2013-7-20,83,73,65,68,65,60,91,77,51,29.12,28.93,10,3,24,0.14
2013-7-21,83,72,64,65,62,59,91,72,51,29.22,29.11,6,2,12,0.00
2013-7-22,83,72,60,69,64,58,92,77,54,29.22,29.01,5,2,10,0.38
2013-7-23,89,75,66,69,65,60,92,74,45,29.01,28.84,8,2,17,0.00
2013-7-24,71,64,55,61,52,48,82,66,49,29.27,28.94,6,3,14,0.00
2013-7-25,76,63,49,56,50,46,87,64,40,29.34,29.26,7,3,13,0.00
2013-7-26,85,68,51,58,53,48,88,62,35,29.34,29.22,4,2,8,0.00
2013-7-27,84,69,58,65,60,54,88,75,52,29.23,29.05,7,3,14,0.14
2013-7-28,80,68,60,66,61,55,92,78,52,29.21,29.04,5,2,10,0.42
2013-7-29,73,64,56,59,54,52,88,72,51,29.36,29.20,7,3,18,0.00
2013-7-30,81,68,57,60,56,53,87,68,43,29.43,29.35,6,2,12,0.00
2013-7-31,86,70,57,63,58,53,86,67,41,29.38,29.16,5,3,13,0.00
2013-8-1,82,71,63,66,62,59,90,74,54,29.16,28.98,9,3,19,0.14
2013-8-2,80,70,61,64,59,53,88,69,42,29.12,29.04,9,4,21,0.00
2013-8-3,80,70,62,60,56,51,84,62,37,29.16,29.04,7,3,17,0.00
2013-8-4,76,66,58,58,53,49,79,64,45,29.28,29.16,6,3,17,0.00
2013-8-5,81,66,53,57,51,48,83,60,34,29.33,29.23,4,2,9,0.00
2013-8-6,86,69,54,59,54,50,85,61,36,29.27,29.20,8,3,14,0.00
2013-8-7,86,73,65,66,62,58,77,68,52,29.22,29.09,9,6,24,0.00
2013-8-8,90,73,66,73,67,62,93,81,53,29.18,29.13,7,3,14,0.42
2013-8-9,81,71,65,69,65,58,94,83,55,29.17,29.08,6,2,12,0.14
2013-8-10,78,69,62,60,55,50,85,63,40,29.31,29.17,7,3,17,0.00
2013-8-11,83,68,55,57,54,51,87,63,40,29.34,29.25,4,2,9,0.00
2013-8-12,83,70,62,63,58,54,77,66,48,29.27,29.08,7,3,20,0.00
2013-8-13,78,67,58,66,58,46,92,73,50,29.10,28.97,9,4,20,0.38
2013-8-14,72,61,53,53,49,46,84,65,43,29.31,29.08,7,4,16,0.00
2013-8-15,78,64,53,55,51,46,78,62,43,29.36,29.28,7,3,14,0.00
2013-8-16,83,67,55,58,54,50,82,64,40,29.42,29.34,4,2,11,0.00
2013-8-17,85,69,54,60,55,50,86,63,36,29.50,29.42,4,2,9,0.00
2013-8-18,85,70,58,61,57,53,81,64,41,29.47,29.32,5,2,10,0.00
2013-8-19,87,73,62,64,60,57,82,64,42,29.34,29.24,5,2,11,0.00
2013-8-20,89,74,62,65,60,56,81,62,39,29.36,29.28,5,3,12,0.00
2013-8-21,92,76,62,67,62,57,82,64,39,29.39,29.24,6,3,12,0.00
2013-8-22,89,75,67,70,65,59,88,71,52,29.26,29.11,7,3,18,0.00
2013-8-23,80,68,58,61,56,52,88,66,45,29.42,29.22,5,1,12,0.00
2013-8-24,82,66,52,58,53,48,88,66,38,29.56,29.42,5,1,10,0.00
2013-8-25,88,70,54,61,55,50,88,61,33,29.56,29.34,6,3,15,0.00
2013-8-26,83,72,68,69,63,57,87,72,60,29.41,29.14,8,4,19,0.14
2013-8-27,88,76,68,72,68,65,89,78,58,29.18,29.09,3,1,10,0.00
2013-8-28,86,74,68,75,69,66,92,83,63,29.18,29.08,6,1,13,0.38
2013-8-29,88,74,64,71,66,63,94,78,49,29.28,29.18,4,2,10,0.00
2013-8-30,89,75,64,70,66,61,90,74,49,29.24,28.99,5,2,12,0.00
2013-8-31,88,77,69,72,68,66,89,74,52,29.08,28.94,7,3,14,0.00
2013-9-1,90,74,67,70,67,64,91,79,52,29.07,28.97,6,1,12,0.24
2013-9-2,87,74,64,72,66,55,91,77,55,29.04,28.90,7,2,14,0.00
2013-9-3,69,64,60,58,56,54,83,73,63,29.18,29.01,8,3,15,0.00
2013-9-4,82,68,57,61,56,52,87,65,40,29.21,29.17,9,4,18,0.00
2013-9-5,70,61,50,61,49,38,88,66,42,29.44,29.19,5,1,13,0.00
2013-9-6,76,59,44,52,45,39,82,61,36,29.49,29.32,3,1,8,0.00
2013-9-7,67,61,56,58,51,45,85,70,57,29.31,29.10,8,4,18,0.00
2013-9-8,69,62,50,62,51,44,92,69,43,29.34,29.08,6,1,16,0.38
2013-9-9,82,62,44,61,51,41,87,68,45,29.37,29.20,9,2,21,0.00
2013-9-10,95,80,66,76,69,59,88,71,52,29.24,29.16,10,4,22,0.47
2013-9-11,97,83,74,75,70,65,81,67,43,29.27,29.13,8,4,20,0.00
2013-9-12,75,70,61,68,63,55,86,79,74,29.16,28.95,8,2,19,0.00
2013-9-13,61,55,50,56,51,46,91,86,79,29.24,28.99,4,1,15,0.24
2013-9-14,66,54,48,47,43,39,91,67,38,29.35,29.23,4,0,11,0.00
2013-9-15,72,57,45,53,46,39,82,66,42,29.38,29.26,4,1,12,0.00
2013-9-16,61,51,43,54,47,40,90,85,76,29.58,29.29,5,0,15,0.00
2013-9-17,71,52,35,47,41,33,92,70,38,29.69,29.51,2,0,8,0.00
2013-9-18,80,60,43,50,44,38,84,59,29,29.51,29.31,4,1,11,0.00
2013-9-19,83,66,52,59,52,44,82,61,42,29.34,29.23,6,1,14,0.00
2013-9-20,88,71,54,64,59,51,88,67,44,29.25,29.00,9,3,18,0.00
2013-9-21,71,64,55,62,58,50,92,82,65,29.00,28.87,9,3,17,1.04
2013-9-22,60,53,50,50,44,41,85,71,56,29.24,28.97,7,2,13,0.00
2013-9-23,64,53,44,43,41,39,82,65,44,29.36,29.24,4,1,12,0.00
2013-9-24,71,54,40,49,43,37,87,67,42,29.36,29.21,4,1,8,0.00
2013-9-25,73,56,41,52,45,38,87,69,45,29.23,29.15,4,1,10,0.00
2013-9-26,73,57,43,55,48,40,90,73,51,29.37,29.21,4,1,12,0.00
2013-9-27,72,56,45,56,49,42,91,78,51,29.48,29.37,4,1,10,0.00
2013-9-28,80,60,46,58,50,44,93,72,40,29.52,29.38,6,2,11,0.00
2013-9-29,80,64,48,54,50,44,88,62,39,29.40,29.20,6,2,17,0.00
2013-9-30,79,65,56,60,54,49,84,68,51,29.24,29.14,4,1,11,0.00
2013-10-1,80,68,59,60,56,53,87,68,41,29.25,29.14,6,2,17,0.00
2013-10-2,78,68,58,62,58,53,82,70,47,29.31,29.14,7,2,17,0.00
2013-10-3,77,62,50,56,50,43,90,67,30,29.35,29.23,3,1,8,0.00
2013-10-4,77,66,60,67,62,55,91,85,70,29.29,29.20,4,1,12,0.14
2013-10-5,66,61,59,62,58,57,94,92,87,29.33,29.25,4,0,11,1.13
2013-10-6,86,70,58,71,63,56,94,78,53,29.25,28.96,10,2,24,0.00
2013-10-7,73,62,50,64,53,42,90,72,49,29.27,28.86,9,4,33,0.14
2013-10-8,68,55,45,48,44,42,88,68,41,29.56,29.27,2,0,9,0.00
2013-10-9,71,55,40,49,42,37,90,65,37,29.61,29.49,3,0,10,0.00
2013-10-10,70,54,42,47,42,37,83,65,34,29.49,29.36,4,1,9,0.00
2013-10-11,74,56,46,52,46,42,87,70,35,29.37,29.30,2,0,10,0.00
2013-10-12,82,61,43,51,42,38,89,57,24,29.41,29.33,2,0,8,0.00
2013-10-13,68,62,54,61,53,40,92,73,46,29.49,29.40,7,2,17,0.28
2013-10-14,67,57,49,57,52,45,93,81,58,29.56,29.47,3,0,14,0.28
2013-10-15,68,57,45,56,51,42,93,80,64,29.51,29.18,6,1,13,0.00
2013-10-16,67,62,57,57,52,48,89,72,62,29.18,29.00,9,4,21,0.14
2013-10-17,66,57,52,51,49,47,91,76,56,29.11,28.89,3,0,11,0.42
2013-10-18,60,53,50,50,43,37,90,68,50,29.14,28.96,7,2,22,0.00
2013-10-19,64,54,45,45,41,38,82,63,47,29.12,28.86,9,3,24,0.00
2013-10-20,52,46,41,42,40,36,87,79,69,29.21,28.99,7,2,19,0.00
2013-10-21,68,57,46,46,38,36,78,51,32,29.20,29.00,10,4,24,0.00
2013-10-22,53,47,40,46,36,31,86,66,46,29.07,28.96,10,3,24,0.00
2013-10-23,47,41,36,37,34,31,86,77,65,29.04,28.91,4,1,14,0.14
2013-10-24,50,40,33,35,31,28,86,73,43,29.23,29.01,11,4,24,0.00
2013-10-25,52,41,36,38,35,33,89,78,54,29.39,29.23,7,1,19,0.00
2013-10-26,47,43,40,35,30,26,81,59,47,29.35,29.01,12,6,31,0.00
2013-10-27,52,43,36,36,33,30,83,69,49,29.27,29.04,7,3,19,0.00
2013-10-28,49,42,33,38,30,22,73,62,42,29.59,29.26,7,2,16,0.00
2013-10-29,53,39,26,31,27,23,86,64,40,29.65,29.49,2,0,9,0.00
2013-10-30,63,47,38,41,36,-100,87,67,43,29.49,29.31,4,-3,8,0.00
2013-10-31,67,57,42,58,50,36,88,77,66,29.31,28.69,10,4,24,0.14
2013-11-1,64,58,49,57,47,40,88,67,48,28.90,28.46,13,6,38,0.28
2013-11-2,54,46,36,45,41,33,90,82,67,29.21,28.83,7,2,13,0.14
2013-11-3,41,34,26,33,24,20,88,68,47,29.73,29.20,4,1,12,0.00
2013-11-4,45,35,22,27,20,17,84,57,33,29.83,29.63,8,1,15,0.00
2013-11-5,59,47,37,35,27,17,56,46,40,29.68,29.54,8,4,16,0.00
2013-11-6,68,57,47,53,43,34,82,61,48,29.54,29.03,10,6,21,0.00
2013-11-7,58,44,38,53,36,28,89,72,60,29.21,29.01,7,2,17,0.14
2013-11-8,44,38,34,31,28,26,77,67,53,29.44,29.16,7,4,17,0.00
2013-11-9,50,43,36,40,30,27,74,60,46,29.43,29.01,9,4,21,0.00
2013-11-10,50,44,39,41,33,28,80,64,56,29.37,28.99,13,6,26,0.00
2013-11-11,46,38,29,35,29,24,89,70,49,29.38,29.13,10,2,22,0.00
2013-11-12,34,28,24,25,20,16,87,70,55,29.58,29.32,8,2,17,0.14
2013-11-13,40,31,21,26,20,16,84,66,47,29.62,29.30,11,4,23,0.00
2013-11-14,55,43,34,23,18,13,51,37,21,29.34,29.21,11,7,26,0.00
2013-11-15,56,48,42,24,21,17,38,34,28,29.33,29.24,10,5,24,0.00
2013-11-16,64,52,37,40,34,23,67,50,36,29.44,29.24,10,3,20,0.00
2013-11-17,60,56,50,53,48,40,89,75,63,29.24,28.61,14,9,26,0.00
2013-11-18,58,46,36,46,34,24,82,64,52,29.13,28.60,13,8,34,0.00
2013-11-19,40,34,26,26,23,20,79,63,48,29.65,29.13,10,2,19,0.00
2013-11-20,42,31,20,25,19,15,85,63,36,29.77,29.64,3,0,9,0.00
2013-11-21,46,39,32,36,24,14,85,57,43,29.65,29.45,10,4,20,0.14
2013-11-22,49,43,32,45,39,26,88,84,74,29.45,29.19,8,1,17,0.14
2013-11-23,38,28,17,26,19,7,82,68,48,29.40,29.20,10,4,23,0.00
2013-11-24,26,19,14,14,10,6,77,66,51,29.60,29.38,7,3,19,0.00
2013-11-25,34,27,16,20,12,9,76,55,34,29.59,29.30,9,3,23,0.00
2013-11-26,37,33,32,31,26,20,91,76,61,29.35,29.00,9,2,21,0.00
2013-11-27,34,30,22,30,26,14,92,84,70,29.12,28.84,2,0,11,0.00
2013-11-28,31,23,16,19,15,10,84,70,50,29.61,29.13,8,2,17,0.00
2013-11-29,33,22,10,20,15,6,88,72,49,29.93,29.60,1,0,5,0.00
2013-11-30,33,22,7,22,14,2,82,71,59,29.91,29.39,11,4,20,0.00
2013-12-1,41,36,31,31,27,22,83,71,61,29.39,29.16,7,2,16,0.42
2013-12-2,42,38,33,32,31,29,83,74,66,29.16,29.05,1,0,9,0.00
2013-12-3,44,34,29,31,28,25,88,78,61,29.21,29.11,0,0,4,0.00
2013-12-4,56,41,30,41,34,26,89,78,57,29.23,29.09,11,1,20,0.14
2013-12-5,62,52,40,53,44,34,80,74,63,29.23,28.97,12,6,21,0.00
2013-12-6,40,34,30,34,28,24,88,77,67,29.46,29.23,4,0,9,0.00
2013-12-7,31,27,23,26,17,11,86,66,52,29.76,29.44,7,3,17,0.00
2013-12-8,29,24,18,20,13,8,74,63,42,29.77,29.38,7,2,14,0.00
2013-12-9,41,35,27,35,27,20,82,72,65,29.38,29.06,15,7,26,0.00
2013-12-10,32,26,20,22,16,10,86,66,53,29.26,29.11,9,5,23,0.00
2013-12-11,26,21,13,21,15,4,85,76,66,29.48,29.26,7,2,14,0.00
2013-12-12,21,15,9,13,7,3,82,69,60,29.53,29.26,9,3,22,0.00
2013-12-13,28,19,14,20,14,6,87,80,65,29.59,29.23,8,2,18,0.00
2013-12-14,22,15,9,19,10,4,87,80,68,29.61,28.92,6,1,11,0.00
2013-12-15,27,24,19,22,19,8,89,82,61,29.06,28.80,9,2,19,0.00
2013-12-16,24,16,2,14,9,-3,84,73,58,29.39,29.07,7,2,15,0.00
2013-12-17,32,18,0,25,12,-5,82,77,70,29.36,29.08,8,2,18,0.00
2013-12-18,30,28,24,26,22,19,86,79,68,29.27,29.11,7,2,17,0.00
2013-12-19,44,36,27,31,25,17,81,64,57,29.24,29.10,8,4,19,0.24
2013-12-20,50,44,34,45,38,30,87,79,64,29.20,28.98,9,4,20,0.00
2013-12-21,56,46,32,52,43,30,92,88,81,29.09,28.95,10,2,23,1.69
2013-12-22,47,37,32,44,34,29,93,89,83,29.19,28.80,3,0,17,0.14
2013-12-23,41,36,25,37,29,17,86,76,63,29.46,29.16,10,4,22,0.00
2013-12-24,26,21,13,22,16,7,86,78,71,29.67,29.39,5,2,13,0.00
2013-12-25,25,17,4,14,8,-1,83,69,57,29.73,29.40,6,2,14,0.00
2013-12-26,35,28,24,26,20,14,80,71,60,29.48,29.24,9,4,19,0.00
2013-12-27,34,30,24,27,23,16,78,74,69,29.48,29.29,7,4,21,0.00
2013-12-28,49,42,34,34,30,25,71,61,55,29.30,29.15,9,5,25,0.00
2013-12-29,46,41,32,37,31,-100,89,70,48,29.15,28.84,10,0,22,0.14
2013-12-30,32,20,15,28,13,7,86,71,60,29.41,28.96,5,2,19,0.00
2013-12-31,24,18,14,18,10,5,77,69,60,29.44,29.15,11,4,23,0.00
2014-1-1,23,17,14,12,8,5,82,67,50,29.59,29.43,6,2,13,0.00
2014-1-2,14,11,3,10,6,-2,82,80,78,29.47,29.15,8,4,19,0.00